createdAt,value
2017-07-15T00:02:58.578Z,15.00
2017-07-15T00:11:00.200Z,15.00
2017-07-15T00:13:27.732Z,15.00
2017-07-15T00:15:56.029Z,15.20
2017-07-15T00:18:23.594Z,15.20
2017-07-15T00:20:51.121Z,15.10
2017-07-15T00:23:19.411Z,15.20
2017-07-15T00:25:47.048Z,15.20
2017-07-15T00:28:14.636Z,15.10
2017-07-15T00:30:42.144Z,15.00
2017-07-15T00:33:09.811Z,15.00
2017-07-15T00:35:37.490Z,15.00
2017-07-15T00:38:05.213Z,15.00
2017-07-15T00:40:32.740Z,15.20
2017-07-15T00:43:00.263Z,15.10
2017-07-15T00:45:28.168Z,15.10
2017-07-15T00:47:55.685Z,15.10
2017-07-15T00:50:23.249Z,15.20
2017-07-15T00:52:50.776Z,15.10
2017-07-15T00:55:18.313Z,15.00
2017-07-15T00:57:46.100Z,15.00
2017-07-15T01:00:13.640Z,15.00
2017-07-15T01:02:45.267Z,15.00
2017-07-15T01:05:12.788Z,15.00
2017-07-15T01:07:40.351Z,15.10
2017-07-15T01:10:07.926Z,15.10
2017-07-15T01:12:35.507Z,15.10
2017-07-15T01:15:03.039Z,15.00
2017-07-15T01:17:30.712Z,15.00
2017-07-15T01:19:58.257Z,15.00
2017-07-15T01:22:25.887Z,15.00
2017-07-15T01:24:53.442Z,15.10
2017-07-15T01:27:21.005Z,15.00
2017-07-15T01:29:48.596Z,15.10
2017-07-15T01:32:16.120Z,15.10
2017-07-15T01:34:43.642Z,15.10
2017-07-15T01:37:11.370Z,15.20
2017-07-15T01:39:38.888Z,15.20
2017-07-15T01:42:06.421Z,15.10
2017-07-15T01:44:33.979Z,15.00
2017-07-15T01:47:01.596Z,15.10
2017-07-15T01:49:29.133Z,15.00
2017-07-15T01:51:57.530Z,15.00
2017-07-15T01:54:25.064Z,15.00
2017-07-15T01:56:52.630Z,15.00
2017-07-15T01:59:20.192Z,14.90
2017-07-15T02:01:47.760Z,14.80
2017-07-15T02:04:15.519Z,14.90
2017-07-15T02:06:43.835Z,14.90
2017-07-15T02:09:11.361Z,14.80
2017-07-15T02:11:39.035Z,14.90
2017-07-15T02:14:06.577Z,14.90
2017-07-15T02:16:34.937Z,14.90
2017-07-15T02:19:03.399Z,14.90
2017-07-15T02:21:30.935Z,14.80
2017-07-15T02:23:58.507Z,14.90
2017-07-15T02:26:26.024Z,14.80
2017-07-15T02:28:54.334Z,14.70
2017-07-15T02:31:21.944Z,14.70
2017-07-15T02:33:50.243Z,14.70
2017-07-15T02:36:18.644Z,14.60
2017-07-15T02:38:46.267Z,14.50
2017-07-15T02:41:13.887Z,14.60
2017-07-15T02:43:41.548Z,14.60
2017-07-15T02:46:09.132Z,14.60
2017-07-15T02:48:36.661Z,14.50
2017-07-15T02:51:04.210Z,14.60
2017-07-15T02:53:31.773Z,14.50
2017-07-15T02:55:59.292Z,14.40
2017-07-15T02:58:26.813Z,14.60
2017-07-15T03:00:54.369Z,14.60
2017-07-15T03:03:21.906Z,14.60
2017-07-15T03:05:49.506Z,14.70
2017-07-15T03:08:17.063Z,14.50
2017-07-15T03:10:44.576Z,14.50
2017-07-15T03:13:12.997Z,14.30
2017-07-15T03:15:40.558Z,14.20
2017-07-15T03:18:08.108Z,14.30
2017-07-15T03:20:35.632Z,14.30
2017-07-15T03:23:03.976Z,14.30
2017-07-15T03:25:31.591Z,14.20
2017-07-15T03:27:59.208Z,14.20
2017-07-15T03:30:26.805Z,14.30
2017-07-15T03:32:54.364Z,14.30
2017-07-15T03:35:21.963Z,14.30
2017-07-15T03:37:49.668Z,14.20
2017-07-15T03:40:17.388Z,14.10
2017-07-15T03:42:44.916Z,14.10
2017-07-15T03:45:12.581Z,13.80
2017-07-15T03:47:40.098Z,13.80
2017-07-15T03:50:07.648Z,13.70
2017-07-15T03:52:35.308Z,13.70
2017-07-15T03:55:02.860Z,13.70
2017-07-15T03:57:30.551Z,13.60
2017-07-15T03:59:58.100Z,13.60
2017-07-15T04:02:25.674Z,13.60
2017-07-15T04:04:53.268Z,13.70
2017-07-15T04:07:20.863Z,13.60
2017-07-15T04:09:48.445Z,13.60
2017-07-15T04:12:15.969Z,13.70
2017-07-15T04:14:43.515Z,13.70
2017-07-15T04:17:11.129Z,13.70
2017-07-15T04:19:38.712Z,13.70
2017-07-15T04:22:07.093Z,13.70
2017-07-15T04:24:34.747Z,13.70
2017-07-15T04:27:02.290Z,13.80
2017-07-15T04:29:29.876Z,13.80
2017-07-15T04:31:58.206Z,13.80
2017-07-15T04:34:25.888Z,13.70
2017-07-15T04:36:53.469Z,13.70
2017-07-15T04:39:20.997Z,13.80
2017-07-15T04:41:48.508Z,13.70
2017-07-15T04:44:16.835Z,13.70
2017-07-15T04:46:44.431Z,13.70
2017-07-15T04:49:12.010Z,13.80
2017-07-15T04:51:40.300Z,13.70
2017-07-15T04:54:07.846Z,13.60
2017-07-15T04:56:36.255Z,13.70
2017-07-15T04:59:03.793Z,13.60
2017-07-15T05:01:32.151Z,13.90
2017-07-15T05:03:59.700Z,13.80
2017-07-15T05:06:27.280Z,13.90
2017-07-15T05:08:54.862Z,14.00
2017-07-15T05:11:22.511Z,14.10
2017-07-15T05:13:50.844Z,14.60
2017-07-15T05:16:18.487Z,14.60
2017-07-15T05:18:46.024Z,14.80
2017-07-15T05:21:13.548Z,14.90
2017-07-15T05:23:41.168Z,15.10
2017-07-15T05:26:08.680Z,15.30
2017-07-15T05:28:36.202Z,15.10
2017-07-15T05:31:03.752Z,15.20
2017-07-15T05:33:31.274Z,15.20
2017-07-15T05:35:59.590Z,15.20
2017-07-15T05:38:27.155Z,15.20
2017-07-15T05:40:54.668Z,15.30
2017-07-15T05:43:22.253Z,15.10
2017-07-15T05:45:49.833Z,15.10
2017-07-15T05:48:17.512Z,15.00
2017-07-15T05:50:45.074Z,15.00
2017-07-15T05:53:12.622Z,14.90
2017-07-15T05:55:43.375Z,14.90
2017-07-15T05:58:15.688Z,14.90
2017-07-15T06:00:44.918Z,14.90
2017-07-15T06:03:15.081Z,15.00
2017-07-15T06:05:44.743Z,14.90
2017-07-15T06:08:16.439Z,14.90
2017-07-15T06:10:46.545Z,14.90
2017-07-15T06:13:15.905Z,14.90
2017-07-15T06:15:48.388Z,14.90
2017-07-15T06:18:21.147Z,15.20
2017-07-15T06:20:50.533Z,15.20
2017-07-15T06:23:25.455Z,15.30
2017-07-15T06:25:53.432Z,15.30
2017-07-15T06:28:28.087Z,15.40
2017-07-15T06:31:05.043Z,15.30
2017-07-15T06:33:35.288Z,15.30
2017-07-15T06:36:04.620Z,15.40
2017-07-15T06:38:33.097Z,15.30
2017-07-15T06:41:00.797Z,15.20
2017-07-15T06:43:46.876Z,15.20
2017-07-15T06:46:17.702Z,15.10
2017-07-15T06:48:49.347Z,15.30
2017-07-15T06:54:07.042Z,15.50
2017-07-15T06:56:34.594Z,15.60
2017-07-15T06:59:02.202Z,15.70
2017-07-15T07:01:30.574Z,15.90
2017-07-15T07:03:59.676Z,15.80
2017-07-15T07:06:27.327Z,15.80
2017-07-15T07:08:55.680Z,15.80
2017-07-15T07:11:23.263Z,15.80
2017-07-15T07:13:50.916Z,15.90
2017-07-15T07:16:18.694Z,16.00
2017-07-15T07:18:46.327Z,16.00
2017-07-15T07:21:14.053Z,15.90
2017-07-15T07:23:41.607Z,16.00
2017-07-15T07:26:09.154Z,16.00
2017-07-15T07:28:37.566Z,16.00
2017-07-15T07:31:05.237Z,16.00
2017-07-15T07:33:32.760Z,16.00
2017-07-15T07:36:01.033Z,16.10
2017-07-15T07:38:28.644Z,16.00
2017-07-15T07:40:56.197Z,16.10
2017-07-15T07:43:23.788Z,16.50
2017-07-15T07:45:51.351Z,17.10
2017-07-15T07:48:18.865Z,17.50
2017-07-15T07:50:49.480Z,17.90
2017-07-15T07:53:22.160Z,17.80
2017-07-15T07:55:58.759Z,17.00
2017-07-15T08:12:11.507Z,16.60
2017-07-15T08:42:21.217Z,17.80
2017-07-15T08:48:25.410Z,17.30
2017-07-15T09:03:50.272Z,18.10
2017-07-15T09:06:31.495Z,18.00
2017-07-15T09:46:40.813Z,17.40
2017-07-15T10:00:08.091Z,17.30
2017-07-15T10:08:55.177Z,17.30
2017-07-15T10:20:28.412Z,17.50
2017-07-15T10:22:59.912Z,18.10
2017-07-15T10:25:29.666Z,18.10
2017-07-15T10:27:59.805Z,18.30
2017-07-15T10:30:32.326Z,18.60
2017-07-15T10:33:00.392Z,18.50
2017-07-15T10:35:30.470Z,18.90
2017-07-15T10:37:58.837Z,19.20
2017-07-15T10:40:27.677Z,19.20
2017-07-15T10:42:58.715Z,19.10
2017-07-15T10:45:27.711Z,19.10
2017-07-15T10:47:58.257Z,19.10
2017-07-15T10:50:29.286Z,19.00
2017-07-15T10:52:59.131Z,19.10
2017-07-15T10:55:27.917Z,19.00
2017-07-15T10:57:56.488Z,19.20
2017-07-15T11:00:25.407Z,19.20
2017-07-15T11:02:53.931Z,19.20
2017-07-15T11:05:22.955Z,19.10
2017-07-15T11:07:52.068Z,19.10
2017-07-15T11:10:24.379Z,18.90
2017-07-15T11:12:54.532Z,19.00
2017-07-15T11:15:26.535Z,19.00
2017-07-15T11:17:57.184Z,18.90
2017-07-15T11:20:26.873Z,19.00
2017-07-15T11:22:56.788Z,19.10
2017-07-15T11:25:26.192Z,19.10
2017-07-15T11:27:55.022Z,19.20
2017-07-15T11:30:30.199Z,19.40
2017-07-15T11:33:00.965Z,19.30
2017-07-15T11:35:31.710Z,19.20
2017-07-15T11:38:02.973Z,19.40
2017-07-15T11:40:32.814Z,19.80
2017-07-15T11:43:04.155Z,20.10
2017-07-15T11:45:32.591Z,20.10
2017-07-15T11:48:04.745Z,19.90
2017-07-15T11:50:37.182Z,19.70
2017-07-15T11:53:06.260Z,19.90
2017-07-15T11:55:35.745Z,20.30
2017-07-15T11:58:07.708Z,20.90
2017-07-15T12:00:40.846Z,20.80
2017-07-15T12:03:11.698Z,21.30
2017-07-15T12:05:51.178Z,21.00
2017-07-15T12:08:22.749Z,20.60
2017-07-15T12:10:54.615Z,20.30
2017-07-15T12:13:25.853Z,20.10
2017-07-15T12:15:54.308Z,20.00
2017-07-15T12:18:25.132Z,19.90
2017-07-15T12:20:54.786Z,19.80
2017-07-15T12:23:23.623Z,20.00
2017-07-15T12:25:55.853Z,20.40
2017-07-15T12:28:26.877Z,20.60
2017-07-15T12:30:54.977Z,20.60
2017-07-15T12:33:26.357Z,20.40
2017-07-15T12:35:56.996Z,20.30
2017-07-15T12:38:25.191Z,20.30
2017-07-15T12:41:02.585Z,20.30
2017-07-15T12:43:33.798Z,20.20
2017-07-15T12:46:03.078Z,20.20
2017-07-15T12:48:33.521Z,20.00
2017-07-15T12:51:03.317Z,20.30
2017-07-15T12:53:31.407Z,20.80
2017-07-15T12:55:58.956Z,20.90
2017-07-15T12:58:27.529Z,21.10
2017-07-15T13:00:59.229Z,21.20
2017-07-15T13:11:50.023Z,20.50
2017-07-15T13:14:17.601Z,20.40
2017-07-15T13:16:45.125Z,20.50
2017-07-15T13:19:12.656Z,20.30
2017-07-15T13:21:40.283Z,20.40
2017-07-15T13:24:07.907Z,20.50
2017-07-15T13:26:35.428Z,20.40
2017-07-15T13:29:03.746Z,20.40
2017-07-15T13:31:31.316Z,20.30
2017-07-15T13:33:58.965Z,20.30
2017-07-15T13:36:26.483Z,20.30
2017-07-15T13:38:54.041Z,20.30
2017-07-15T13:41:21.691Z,20.50
2017-07-15T13:43:49.211Z,20.50
2017-07-15T13:46:16.774Z,20.50
2017-07-15T13:48:44.328Z,20.50
2017-07-15T13:51:11.853Z,20.40
2017-07-15T13:53:40.186Z,20.00
2017-07-15T13:56:07.701Z,20.00
2017-07-15T13:58:35.285Z,20.10
2017-07-15T14:01:02.917Z,20.30
2017-07-15T14:03:33.725Z,20.40
2017-07-15T14:06:01.482Z,20.40
2017-07-15T14:08:56.955Z,20.50
2017-07-15T14:11:24.522Z,20.50
2017-07-15T14:13:52.101Z,20.40
2017-07-15T14:16:19.626Z,20.30
2017-07-15T14:18:47.661Z,20.30
2017-07-15T14:21:23.459Z,20.20
2017-07-15T14:23:51.925Z,20.20
2017-07-15T14:26:19.530Z,20.20
2017-07-15T14:28:47.099Z,20.30
2017-07-15T14:31:14.620Z,20.40
2017-07-15T14:33:42.180Z,20.50
2017-07-15T14:36:09.709Z,20.50
2017-07-15T14:38:37.217Z,20.70
2017-07-15T14:41:04.787Z,20.60
2017-07-15T14:43:32.348Z,20.40
2017-07-15T14:45:59.957Z,20.30
2017-07-15T14:48:28.313Z,20.30
2017-07-15T14:50:55.890Z,20.20
2017-07-15T14:53:23.529Z,20.40
2017-07-15T14:55:51.848Z,20.20
2017-07-15T14:58:20.124Z,20.30
2017-07-15T15:00:48.468Z,20.30
2017-07-15T15:03:26.222Z,20.30
2017-07-15T15:05:53.974Z,20.30
2017-07-15T15:08:21.794Z,20.20
2017-07-15T15:10:56.000Z,20.20
2017-07-15T15:13:26.766Z,20.10
2017-07-15T15:15:55.941Z,20.10
2017-07-15T15:18:23.585Z,20.10
2017-07-15T15:20:51.153Z,20.00
2017-07-15T15:23:18.816Z,20.10
2017-07-15T15:25:46.382Z,20.00
2017-07-15T15:28:13.956Z,20.00
2017-07-15T15:30:41.464Z,19.90
2017-07-15T15:33:09.693Z,19.80
2017-07-15T15:35:37.280Z,19.70
2017-07-15T15:38:04.799Z,19.60
2017-07-15T15:40:32.353Z,19.70
2017-07-15T15:42:59.870Z,19.60
2017-07-15T15:45:27.390Z,19.70
2017-07-15T15:47:55.245Z,19.60
2017-07-15T15:50:24.623Z,19.70
2017-07-15T15:52:52.188Z,19.70
2017-07-15T15:55:19.825Z,19.80
2017-07-15T15:57:48.108Z,19.90
2017-07-15T16:00:16.440Z,19.80
2017-07-15T16:02:43.952Z,19.80
2017-07-15T16:05:11.480Z,19.90
2017-07-15T16:07:39.045Z,19.70
2017-07-15T16:10:06.636Z,19.70
2017-07-15T16:12:34.164Z,19.70
2017-07-15T16:15:01.935Z,19.90
2017-07-15T16:17:30.599Z,19.90
2017-07-15T16:20:01.026Z,19.90
2017-07-15T16:22:28.579Z,19.80
2017-07-15T16:24:56.280Z,19.80
2017-07-15T16:27:24.584Z,19.60
2017-07-15T16:29:52.184Z,19.50
2017-07-15T16:32:19.722Z,19.50
2017-07-15T16:34:47.292Z,19.50
2017-07-15T16:37:15.049Z,19.50
2017-07-15T16:39:42.613Z,19.70
2017-07-15T16:42:10.153Z,19.70
2017-07-15T16:44:37.668Z,19.80
2017-07-15T16:47:05.211Z,19.70
2017-07-15T16:49:32.717Z,19.70
2017-07-15T16:52:00.280Z,19.60
2017-07-15T16:54:28.555Z,19.50
2017-07-15T16:56:56.068Z,19.40
2017-07-15T16:59:23.621Z,19.40
2017-07-15T17:01:51.137Z,19.50
2017-07-15T17:04:18.697Z,19.60
2017-07-15T17:06:46.215Z,19.60
2017-07-15T17:09:13.782Z,19.60
2017-07-15T17:11:41.325Z,19.50
2017-07-15T17:14:08.883Z,19.30
2017-07-15T17:16:36.408Z,19.20
2017-07-15T17:19:04.202Z,19.10
2017-07-15T17:21:31.779Z,19.10
2017-07-15T17:23:59.315Z,19.00
2017-07-15T17:26:26.837Z,19.00
2017-07-15T17:28:55.234Z,18.70
2017-07-15T17:31:22.833Z,18.60
2017-07-15T17:33:50.709Z,18.70
2017-07-15T17:36:18.305Z,18.60
2017-07-15T17:38:45.868Z,18.50
2017-07-15T17:41:13.412Z,18.50
2017-07-15T17:43:41.954Z,18.30
2017-07-15T17:46:10.442Z,18.40
2017-07-15T17:48:41.986Z,18.30
2017-07-15T17:51:11.521Z,18.40
2017-07-15T17:53:39.556Z,18.40
2017-07-15T17:56:08.975Z,18.30
2017-07-15T17:58:36.820Z,18.10
2017-07-15T18:01:04.377Z,18.00
2017-07-15T18:03:32.927Z,17.90
2017-07-15T18:06:00.483Z,17.80
2017-07-15T18:08:28.107Z,17.70
2017-07-15T18:10:55.704Z,17.50
2017-07-15T18:13:23.224Z,17.60
2017-07-15T18:15:50.739Z,17.50
2017-07-15T18:18:19.065Z,17.50
2017-07-15T18:20:46.611Z,17.40
2017-07-15T18:23:14.181Z,17.50
2017-07-15T18:25:41.696Z,17.40
2017-07-15T18:28:09.980Z,17.20
2017-07-15T18:30:37.564Z,17.20
2017-07-15T18:33:05.082Z,17.10
2017-07-15T18:35:33.431Z,16.70
2017-07-15T18:38:00.995Z,16.60
2017-07-15T18:40:28.780Z,16.70
2017-07-15T18:42:56.537Z,16.50
2017-07-15T18:45:25.072Z,16.50
2017-07-15T18:47:52.757Z,16.60
2017-07-15T18:50:20.391Z,16.50
2017-07-15T18:52:47.987Z,16.30
2017-07-15T18:55:15.661Z,16.10
2017-07-15T18:57:43.221Z,16.00
2017-07-15T19:00:10.827Z,15.80
2017-07-15T19:02:38.395Z,15.90
2017-07-15T19:05:05.981Z,15.80
2017-07-15T19:07:33.573Z,15.90
2017-07-15T19:10:01.083Z,15.70
2017-07-15T19:12:28.642Z,15.70
2017-07-15T19:14:56.194Z,15.70
2017-07-15T19:17:23.835Z,15.70
2017-07-15T19:19:51.403Z,16.00
2017-07-15T19:22:18.950Z,15.70
2017-07-15T19:24:46.515Z,15.60
2017-07-15T19:27:14.103Z,15.50
2017-07-15T19:29:41.644Z,15.60
2017-07-15T19:32:09.972Z,15.40
2017-07-15T19:34:37.516Z,15.30
2017-07-15T19:37:05.114Z,15.20
2017-07-15T19:39:32.634Z,15.30
2017-07-15T19:42:00.155Z,15.30
2017-07-15T19:44:27.703Z,15.50
2017-07-15T19:46:55.284Z,15.40
2017-07-15T19:49:23.582Z,15.10
2017-07-15T19:51:51.148Z,15.00
2017-07-15T19:54:18.674Z,14.90
2017-07-15T19:56:46.191Z,14.90
2017-07-15T19:59:13.738Z,14.90
2017-07-15T20:01:41.265Z,14.70
2017-07-15T20:04:08.831Z,14.60
2017-07-15T20:06:37.109Z,14.60
2017-07-15T20:09:05.438Z,14.80
2017-07-15T20:11:32.950Z,14.80
2017-07-15T20:14:01.270Z,15.00
2017-07-15T20:16:28.813Z,14.90
2017-07-15T20:18:56.400Z,14.90
2017-07-15T20:21:23.998Z,14.90
2017-07-15T20:23:51.576Z,14.90
2017-07-15T20:26:20.008Z,14.80
2017-07-15T20:28:47.594Z,14.70
2017-07-15T20:31:15.124Z,14.80
2017-07-15T20:33:42.776Z,14.80
2017-07-15T20:36:15.963Z,14.80
2017-07-15T20:38:43.489Z,14.80
2017-07-15T20:41:11.018Z,14.70
2017-07-15T20:43:38.812Z,14.70
2017-07-15T20:46:07.089Z,14.70
2017-07-15T20:48:35.374Z,14.70
2017-07-15T20:51:03.689Z,14.80
2017-07-15T20:53:36.883Z,14.80
2017-07-15T20:56:04.424Z,14.90
2017-07-15T20:58:31.948Z,14.90
2017-07-15T21:01:00.655Z,14.90
2017-07-15T21:03:28.171Z,14.80
2017-07-15T21:05:55.697Z,15.10
2017-07-15T21:08:23.389Z,15.20
2017-07-15T21:10:50.988Z,15.00
2017-07-15T21:13:18.544Z,15.00
2017-07-15T21:15:46.945Z,14.80
2017-07-15T21:18:14.486Z,14.80
2017-07-15T21:20:42.779Z,14.70
2017-07-15T21:23:10.407Z,14.60
2017-07-15T21:25:37.924Z,14.80
2017-07-15T21:28:05.444Z,15.00
2017-07-15T21:30:33.296Z,15.00
2017-07-15T21:33:00.907Z,15.10
2017-07-15T21:35:28.424Z,15.00
2017-07-15T21:37:55.947Z,15.00
2017-07-15T21:40:23.500Z,14.90
2017-07-15T21:42:51.012Z,14.90
2017-07-15T21:45:19.397Z,14.90
2017-07-15T21:47:46.948Z,14.90
2017-07-15T21:50:14.472Z,15.00
2017-07-15T21:52:42.049Z,14.90
2017-07-15T21:55:09.572Z,15.00
2017-07-15T21:57:37.141Z,15.00
2017-07-15T22:00:04.661Z,14.90
2017-07-15T22:02:33.087Z,14.70
2017-07-15T22:05:00.640Z,14.70
2017-07-15T22:07:28.246Z,14.60
2017-07-15T22:09:55.769Z,14.70
2017-07-15T22:12:23.284Z,14.50
2017-07-15T22:14:51.708Z,14.80
2017-07-15T22:17:19.264Z,14.70
2017-07-15T22:19:50.335Z,14.70
2017-07-15T22:22:18.192Z,14.50
2017-07-15T22:24:45.720Z,14.50
2017-07-15T22:27:21.667Z,14.40
2017-07-15T22:29:49.196Z,14.40
2017-07-15T22:32:16.816Z,14.60
2017-07-15T22:34:44.365Z,14.60
2017-07-15T22:37:11.924Z,14.40
2017-07-15T22:39:39.481Z,14.50
2017-07-15T22:42:07.105Z,14.60
2017-07-15T22:44:34.683Z,14.70
2017-07-15T22:47:03.085Z,14.30
2017-07-15T22:49:30.920Z,14.20
2017-07-15T22:51:58.442Z,14.30
2017-07-15T22:54:26.018Z,14.40
2017-07-15T22:56:53.661Z,14.30
2017-07-15T22:59:21.181Z,14.30
2017-07-15T23:01:48.745Z,14.30
2017-07-15T23:04:16.264Z,14.20
2017-07-15T23:06:43.780Z,14.40
2017-07-15T23:09:11.392Z,14.30
2017-07-15T23:11:39.197Z,14.20
2017-07-15T23:14:06.729Z,14.20
2017-07-15T23:16:35.089Z,14.50
2017-07-15T23:19:02.627Z,14.40
2017-07-15T23:21:30.140Z,14.70
2017-07-15T23:23:58.464Z,14.60
2017-07-15T23:26:25.976Z,14.50
2017-07-15T23:28:53.545Z,14.50
2017-07-15T23:31:21.136Z,14.40
2017-07-15T23:33:48.657Z,14.40
2017-07-15T23:36:16.944Z,14.10
2017-07-15T23:38:44.519Z,14.00
2017-07-15T23:41:12.029Z,14.20
2017-07-15T23:43:39.565Z,14.40
2017-07-15T23:46:07.112Z,14.30
2017-07-15T23:48:34.632Z,14.20
2017-07-15T23:51:02.313Z,14.10
2017-07-15T23:53:30.021Z,14.20
2017-07-15T23:55:57.528Z,14.00
2017-07-15T23:58:25.117Z,13.90
